createdAt,value
2023-01-11T00:01:38.202Z,5.03
2023-01-11T00:04:05.238Z,4.45
2023-01-11T00:06:32.154Z,4.10
2023-01-11T00:08:59.582Z,7.35
2023-01-11T00:11:26.923Z,6.10
2023-01-11T00:13:53.736Z,4.65
2023-01-11T00:16:20.561Z,6.75
2023-01-11T00:18:47.380Z,3.95
2023-01-11T00:21:14.959Z,3.63
2023-01-11T00:23:41.889Z,4.25
2023-01-11T00:26:13.177Z,9.43
2023-01-11T00:28:40.170Z,3.92
2023-01-11T00:31:07.101Z,4.25
2023-01-11T00:33:34.575Z,5.05
2023-01-11T00:36:01.535Z,5.13
2023-01-11T00:38:46.945Z,5.50
2023-01-11T00:41:34.650Z,5.45
2023-01-11T00:44:21.343Z,4.45
2023-01-11T00:47:09.662Z,3.88
2023-01-11T00:49:36.836Z,4.60
2023-01-11T00:52:11.472Z,3.92
2023-01-11T00:54:40.568Z,4.10
2023-01-11T00:57:08.745Z,3.42
2023-01-11T00:59:39.350Z,4.07
2023-01-11T01:02:07.900Z,3.25
2023-01-11T01:04:35.019Z,3.22
2023-01-11T01:07:01.965Z,5.20
2023-01-11T01:09:29.007Z,3.95
2023-01-11T01:11:55.916Z,4.22
2023-01-11T01:14:26.095Z,3.55
2023-01-11T01:16:55.334Z,4.13
2023-01-11T01:19:22.898Z,4.20
2023-01-11T01:21:50.976Z,4.30
2023-01-11T01:24:17.979Z,3.67
2023-01-11T01:26:44.927Z,3.85
2023-01-11T01:29:11.997Z,4.55
2023-01-11T01:31:38.908Z,5.75
2023-01-11T01:34:06.537Z,5.88
2023-01-11T01:36:33.867Z,4.20
2023-01-11T01:39:01.644Z,5.13
2023-01-11T01:41:29.172Z,4.88
2023-01-11T01:44:01.398Z,6.97
2023-01-11T01:46:33.736Z,6.32
2023-01-11T01:49:11.575Z,5.05
2023-01-11T01:51:55.723Z,4.03
2023-01-11T01:54:34.620Z,3.58
2023-01-11T01:57:19.946Z,4.15
2023-01-11T01:59:52.113Z,4.82
2023-01-11T02:02:24.881Z,4.95
2023-01-11T02:07:33.520Z,5.55
2023-01-11T02:12:39.917Z,5.05
2023-01-11T02:15:10.167Z,4.22
2023-01-11T02:17:37.220Z,4.15
2023-01-11T02:20:34.924Z,5.03
2023-01-11T02:23:37.491Z,4.82
2023-01-11T02:26:47.290Z,5.88
2023-01-11T02:29:47.307Z,4.90
2023-01-11T02:32:27.864Z,5.97
2023-01-11T02:35:32.300Z,3.53
2023-01-11T02:38:13.865Z,3.47
2023-01-11T02:41:10.837Z,3.88
2023-01-11T02:44:07.679Z,4.00
2023-01-11T02:46:59.141Z,3.58
2023-01-11T02:49:28.755Z,3.50
2023-01-11T02:52:08.539Z,2.95
2023-01-11T02:54:42.358Z,4.00
2023-01-11T02:57:11.697Z,4.05
2023-01-11T02:59:42.137Z,6.20
2023-01-11T03:02:09.841Z,4.75
2023-01-11T03:04:37.856Z,2.28
2023-01-11T03:07:44.804Z,3.58
2023-01-11T03:10:33.530Z,4.75
2023-01-11T03:13:16.929Z,3.75
2023-01-11T03:16:13.571Z,2.58
2023-01-11T03:18:50.411Z,3.13
2023-01-11T03:21:42.818Z,2.97
2023-01-11T03:24:15.743Z,3.60
2023-01-11T03:27:29.080Z,4.47
2023-01-11T03:30:14.389Z,4.45
2023-01-11T03:32:54.379Z,3.42
2023-01-11T03:35:40.839Z,3.80
2023-01-11T03:38:27.643Z,3.60
2023-01-11T03:41:06.795Z,2.90
2023-01-11T03:43:40.350Z,3.40
2023-01-11T03:46:14.912Z,3.80
2023-01-11T03:48:53.782Z,3.13
2023-01-11T03:51:37.349Z,5.57
2023-01-11T03:54:09.965Z,4.43
2023-01-11T03:56:54.056Z,1.83
2023-01-11T03:59:20.961Z,1.77
2023-01-11T04:01:47.796Z,3.67
2023-01-11T04:04:14.638Z,3.70
2023-01-11T04:06:41.637Z,2.00
2023-01-11T04:09:08.474Z,1.77
2023-01-11T04:11:35.253Z,2.22
2023-01-11T04:14:02.290Z,3.13
2023-01-11T04:16:29.335Z,2.17
2023-01-11T04:18:56.443Z,3.10
2023-01-11T04:21:23.267Z,2.22
2023-01-11T04:23:50.107Z,2.95
2023-01-11T04:26:17.635Z,1.63
2023-01-11T04:28:45.122Z,5.20
2023-01-11T04:31:12.705Z,3.58
2023-01-11T04:33:39.520Z,6.53
2023-01-11T04:36:09.609Z,1.77
2023-01-11T04:38:37.838Z,2.40
2023-01-11T04:41:23.841Z,1.08
2023-01-11T04:43:53.638Z,2.58
2023-01-11T04:46:20.556Z,1.95
2023-01-11T04:48:47.321Z,2.58
2023-01-11T04:51:14.117Z,2.40
2023-01-11T04:53:40.895Z,4.47
2023-01-11T04:56:08.582Z,3.42
2023-01-11T04:58:38.064Z,4.47
2023-01-11T05:01:11.171Z,6.05
2023-01-11T05:03:38.317Z,4.13
2023-01-11T05:06:05.686Z,4.55
2023-01-11T05:08:33.170Z,2.42
2023-01-11T05:11:03.479Z,3.28
2023-01-11T05:13:43.257Z,5.72
2023-01-11T05:16:26.239Z,4.43
2023-01-11T05:18:59.069Z,6.72
2023-01-11T05:21:31.457Z,6.22
2023-01-11T05:24:00.856Z,5.97
2023-01-11T05:26:35.270Z,6.32
2023-01-11T05:29:06.330Z,6.07
2023-01-11T05:31:36.274Z,6.82
2023-01-11T05:34:03.707Z,6.90
2023-01-11T05:36:30.534Z,7.28
2023-01-11T05:38:57.656Z,7.45
2023-01-11T05:41:27.478Z,6.10
2023-01-11T05:44:14.171Z,8.05
2023-01-11T05:46:44.139Z,6.05
2023-01-11T05:49:13.428Z,6.95
2023-01-11T05:51:42.303Z,9.38
2023-01-11T05:54:14.561Z,10.88
2023-01-11T05:56:42.975Z,8.30
2023-01-11T05:59:10.280Z,7.88
2023-01-11T06:01:37.328Z,8.55
2023-01-11T06:04:07.089Z,11.60
2023-01-11T06:06:34.373Z,7.18
2023-01-11T06:09:01.359Z,12.57
2023-01-11T06:11:28.284Z,9.52
2023-01-11T06:13:55.303Z,9.25
2023-01-11T06:16:23.593Z,5.05
2023-01-11T06:18:53.408Z,16.17
2023-01-11T06:21:21.410Z,10.35
2023-01-11T06:23:53.878Z,10.10
2023-01-11T06:26:23.282Z,14.00
2023-01-11T06:28:51.440Z,12.95
2023-01-11T06:31:19.119Z,11.40
2023-01-11T06:33:47.236Z,12.30
2023-01-11T06:36:16.129Z,11.90
2023-01-11T06:38:43.874Z,7.47
2023-01-11T06:41:12.467Z,4.20
2023-01-11T06:43:42.226Z,11.77
2023-01-11T06:46:15.269Z,12.13
2023-01-11T06:48:43.525Z,13.07
2023-01-11T06:51:12.003Z,15.02
2023-01-11T06:53:41.047Z,7.05
2023-01-11T06:56:12.317Z,10.80
2023-01-11T06:58:39.699Z,10.75
2023-01-11T07:01:07.249Z,14.50
2023-01-11T07:03:34.556Z,15.70
2023-01-11T07:06:02.111Z,18.75
2023-01-11T07:08:28.864Z,14.13
2023-01-11T07:10:55.742Z,9.85
2023-01-11T07:13:22.957Z,15.38
2023-01-11T07:15:52.283Z,18.08
2023-01-11T07:18:19.951Z,14.80
2023-01-11T07:20:47.591Z,17.55
2023-01-11T07:23:14.577Z,20.33
2023-01-11T07:25:41.784Z,16.00
2023-01-11T07:28:09.348Z,8.00
2023-01-11T07:30:56.197Z,14.70
2023-01-11T07:33:25.897Z,12.35
2023-01-11T07:35:53.714Z,15.23
2023-01-11T07:38:20.846Z,14.93
2023-01-11T07:40:47.868Z,6.00
2023-01-11T07:43:15.302Z,14.52
2023-01-11T07:45:48.066Z,14.40
2023-01-11T07:48:20.693Z,13.13
2023-01-11T07:50:48.591Z,11.43
2023-01-11T07:53:15.733Z,14.45
2023-01-11T07:55:42.841Z,6.68
2023-01-11T07:58:13.639Z,10.80
2023-01-11T08:00:41.676Z,10.52
2023-01-11T08:03:09.405Z,8.80
2023-01-11T08:05:36.463Z,16.15
2023-01-11T08:08:04.406Z,13.48
2023-01-11T08:10:31.626Z,11.45
2023-01-11T08:13:17.540Z,14.50
2023-01-11T08:15:44.672Z,12.38
2023-01-11T08:18:12.505Z,10.85
2023-01-11T08:20:40.548Z,13.50
2023-01-11T08:23:10.409Z,9.15
2023-01-11T08:25:37.931Z,14.80
2023-01-11T08:28:07.575Z,11.98
2023-01-11T08:30:36.481Z,12.93
2023-01-11T08:33:05.532Z,8.45
2023-01-11T08:35:39.195Z,19.20
2023-01-11T08:38:06.845Z,10.35
2023-01-11T08:40:34.182Z,11.30
2023-01-11T08:43:01.153Z,16.42
2023-01-11T08:45:28.208Z,15.02
2023-01-11T08:47:56.019Z,11.95
2023-01-11T08:50:23.192Z,12.63
2023-01-11T08:52:51.845Z,16.00
2023-01-11T08:55:19.936Z,11.10
2023-01-11T08:57:47.297Z,17.83
2023-01-11T09:00:15.640Z,14.60
2023-01-11T09:02:42.716Z,8.98
2023-01-11T09:05:10.100Z,19.23
2023-01-11T09:07:37.082Z,18.50
2023-01-11T09:10:05.337Z,5.80
2023-01-11T09:12:32.893Z,14.75
2023-01-11T09:14:59.993Z,22.40
2023-01-11T09:17:28.023Z,10.88
2023-01-11T09:19:55.057Z,11.85
2023-01-11T09:22:22.192Z,16.02
2023-01-11T09:24:49.441Z,8.48
2023-01-11T09:27:16.756Z,16.77
2023-01-11T09:29:46.160Z,12.10
2023-01-11T09:32:13.121Z,11.52
2023-01-11T09:34:41.742Z,12.90
2023-01-11T09:37:08.930Z,7.88
2023-01-11T09:39:35.759Z,11.13
2023-01-11T09:42:36.688Z,14.10
2023-01-11T09:45:17.790Z,10.60
2023-01-11T09:48:04.951Z,14.73
2023-01-11T09:50:41.181Z,14.43
2023-01-11T09:53:22.480Z,12.07
2023-01-11T09:55:52.894Z,11.00
2023-01-11T09:58:42.600Z,13.30
2023-01-11T10:01:39.359Z,13.88
2023-01-11T10:04:58.669Z,12.95
2023-01-11T10:07:34.605Z,11.73
2023-01-11T10:18:31.227Z,18.15
2023-01-11T10:19:41.745Z,12.25
2023-01-11T10:22:19.603Z,22.52
2023-01-11T10:25:21.795Z,15.85
2023-01-11T10:28:20.114Z,15.43
2023-01-11T10:30:57.498Z,15.50
2023-01-11T10:34:14.113Z,11.57
2023-01-11T10:37:18.761Z,11.30
2023-01-11T10:40:39.742Z,12.48
2023-01-11T10:43:21.898Z,13.70
2023-01-11T10:45:55.698Z,19.00
2023-01-11T10:48:40.318Z,10.13
2023-01-11T10:51:42.004Z,17.05
2023-01-11T10:54:18.128Z,11.82
2023-01-11T10:57:09.063Z,7.97
2023-01-11T11:02:38.858Z,13.38
2023-01-11T11:06:00.035Z,16.13
2023-01-11T11:08:40.829Z,14.25
2023-01-11T11:11:26.795Z,19.73
2023-01-11T11:14:14.327Z,11.05
2023-01-11T11:17:01.335Z,12.48
2023-01-11T11:19:32.989Z,16.45
2023-01-11T11:22:00.764Z,16.08
2023-01-11T11:24:52.049Z,18.58
2023-01-11T11:27:51.544Z,15.50
2023-01-11T11:30:39.425Z,17.25
2023-01-11T11:33:20.660Z,17.08
2023-01-11T11:36:06.690Z,12.82
2023-01-11T11:39:00.455Z,15.23
2023-01-11T11:41:27.408Z,14.18
2023-01-11T11:44:15.134Z,20.48
2023-01-11T11:46:56.851Z,9.27
2023-01-11T11:49:24.167Z,10.70
2023-01-11T11:51:53.051Z,13.60
2023-01-11T11:54:32.631Z,13.73
2023-01-11T11:57:25.145Z,16.13
2023-01-11T12:00:25.297Z,19.23
2023-01-11T12:03:17.333Z,12.30
2023-01-11T12:06:10.315Z,9.10
2023-01-11T12:08:37.518Z,11.95
2023-01-11T12:11:08.211Z,14.05
2023-01-11T12:13:38.845Z,13.23
2023-01-11T12:16:22.983Z,13.38
2023-01-11T12:18:49.942Z,16.52
2023-01-11T12:21:23.565Z,15.45
2023-01-11T12:24:19.138Z,11.05
2023-01-11T12:27:05.606Z,12.75
2023-01-11T12:29:47.710Z,8.10
2023-01-11T12:32:47.841Z,18.48
2023-01-11T12:35:29.869Z,14.07
2023-01-11T12:38:05.769Z,18.02
2023-01-11T12:41:01.603Z,10.23
2023-01-11T12:43:43.525Z,14.50
2023-01-11T12:46:41.266Z,15.75
2023-01-11T12:49:23.408Z,12.57
2023-01-11T12:52:36.400Z,8.80
2023-01-11T12:55:50.362Z,14.45
2023-01-11T12:58:24.141Z,20.45
2023-01-11T13:01:40.842Z,18.23
2023-01-11T13:04:45.311Z,11.38
2023-01-11T13:07:46.019Z,14.77
2023-01-11T13:10:59.435Z,15.30
2023-01-11T13:13:53.480Z,11.85
2023-01-11T13:16:53.599Z,16.10
2023-01-11T13:19:59.543Z,13.52
2023-01-11T13:22:35.295Z,16.70
2023-01-11T13:25:12.584Z,15.00
2023-01-11T13:27:40.998Z,13.30
2023-01-11T13:30:14.750Z,13.85
2023-01-11T13:33:05.679Z,15.20
2023-01-11T13:35:43.116Z,13.55
2023-01-11T13:38:39.983Z,13.27
2023-01-11T13:41:26.591Z,15.25
2023-01-11T13:44:18.106Z,14.68
2023-01-11T13:47:07.018Z,16.55
2023-01-11T13:50:14.428Z,15.55
2023-01-11T13:52:53.147Z,9.13
2023-01-11T13:55:35.221Z,13.20
2023-01-11T13:58:42.375Z,12.48
2023-01-11T14:01:19.853Z,14.63
2023-01-11T14:04:06.033Z,19.00
2023-01-11T14:07:08.770Z,13.55
2023-01-11T14:10:06.687Z,14.82
2023-01-11T14:13:01.491Z,10.60
2023-01-11T14:15:40.982Z,9.98
2023-01-11T14:18:16.717Z,9.70
2023-01-11T14:20:55.181Z,12.15
2023-01-11T14:23:54.889Z,13.20
2023-01-11T14:26:55.791Z,20.05
2023-01-11T14:30:11.343Z,16.90
2023-01-11T14:33:20.742Z,15.32
2023-01-11T14:36:28.849Z,13.57
2023-01-11T14:39:41.446Z,14.55
2023-01-11T14:42:35.262Z,13.23
2023-01-11T14:45:26.620Z,12.38
2023-01-11T14:48:15.961Z,13.35
2023-01-11T14:51:33.256Z,13.13
2023-01-11T14:54:44.963Z,12.82
2023-01-11T14:57:39.860Z,18.00
2023-01-11T15:00:18.957Z,13.70
2023-01-11T15:02:51.212Z,11.38
2023-01-11T15:11:16.299Z,17.63
2023-01-11T15:13:52.759Z,12.10
2023-01-11T15:16:59.322Z,13.77
2023-01-11T15:19:34.302Z,11.25
2023-01-11T15:22:05.928Z,6.65
2023-01-11T15:24:41.067Z,16.25
2023-01-11T15:27:26.478Z,13.82
2023-01-11T15:29:59.136Z,12.48
2023-01-11T15:32:35.782Z,17.35
2023-01-11T15:35:33.665Z,11.55
2023-01-11T15:38:30.390Z,12.00
2023-01-11T15:41:21.335Z,13.90
2023-01-11T15:44:17.369Z,11.02
2023-01-11T15:47:50.497Z,11.13
2023-01-11T15:51:03.562Z,15.65
2023-01-11T15:54:08.756Z,17.10
2023-01-11T15:56:35.664Z,12.93
2023-01-11T15:59:23.837Z,12.80
2023-01-11T16:02:15.777Z,16.17
2023-01-11T16:04:53.352Z,15.93
2023-01-11T16:07:53.719Z,14.80
2023-01-11T16:10:51.627Z,12.18
2023-01-11T16:14:00.263Z,16.15
2023-01-11T16:16:33.369Z,15.75
2023-01-11T16:19:21.995Z,14.68
2023-01-11T16:21:55.647Z,13.43
2023-01-11T16:24:29.591Z,10.02
2023-01-11T16:27:01.765Z,14.05
2023-01-11T16:32:19.339Z,12.05
2023-01-11T16:34:47.098Z,12.85
2023-01-11T16:37:27.138Z,12.38
2023-01-11T16:40:10.569Z,13.32
2023-01-11T16:42:50.196Z,14.95
2023-01-11T16:45:23.165Z,11.88
2023-01-11T16:48:02.049Z,10.07
2023-01-11T16:50:29.780Z,11.52
2023-01-11T16:53:00.254Z,10.48
2023-01-11T16:55:36.890Z,13.52
2023-01-11T16:58:20.801Z,8.15
2023-01-11T17:01:16.543Z,14.45
2023-01-11T17:03:55.015Z,8.23
2023-01-11T17:06:25.072Z,11.70
2023-01-11T17:08:57.398Z,9.45
2023-01-11T17:14:37.009Z,11.57
2023-01-11T17:17:08.392Z,11.65
2023-01-11T17:19:43.177Z,12.80
2023-01-11T17:22:29.523Z,9.20
2023-01-11T17:25:12.788Z,6.47
2023-01-11T17:27:50.104Z,16.13
2023-01-11T17:30:25.852Z,14.38
2023-01-11T17:32:58.964Z,15.73
2023-01-11T17:35:36.589Z,11.23
2023-01-11T17:38:08.150Z,14.95
2023-01-11T17:40:39.502Z,13.75
2023-01-11T17:43:44.206Z,12.25
2023-01-11T17:46:19.352Z,12.05
2023-01-11T17:48:59.605Z,16.55
2023-01-11T17:51:31.479Z,16.15
2023-01-11T17:53:58.394Z,15.68
2023-01-11T17:56:41.807Z,8.25
2023-01-11T17:59:11.465Z,13.85
2023-01-11T18:01:38.855Z,13.23
2023-01-11T18:04:05.726Z,10.10
2023-01-11T18:06:42.468Z,13.25
2023-01-11T18:09:31.847Z,12.38
2023-01-11T18:12:14.271Z,15.45
2023-01-11T18:14:53.343Z,7.55
2023-01-11T18:17:46.459Z,10.30
2023-01-11T18:20:16.330Z,10.63
2023-01-11T18:23:07.801Z,17.10
2023-01-11T18:25:35.891Z,18.48
2023-01-11T18:28:12.022Z,20.48
2023-01-11T18:30:46.124Z,15.88
2023-01-11T18:33:19.839Z,10.88
2023-01-11T18:35:50.685Z,10.25
2023-01-11T18:38:36.521Z,10.07
2023-01-11T18:41:27.576Z,13.05
2023-01-11T18:43:55.652Z,13.13
2023-01-11T18:46:22.648Z,12.32
2023-01-11T18:48:49.700Z,14.98
2023-01-11T18:51:34.300Z,11.93
2023-01-11T18:54:01.636Z,10.98
2023-01-11T18:56:28.613Z,11.15
2023-01-11T18:58:55.495Z,9.88
2023-01-11T19:01:23.150Z,12.63
2023-01-11T19:03:51.115Z,13.23
2023-01-11T19:06:21.067Z,14.85
2023-01-11T19:08:47.910Z,12.27
2023-01-11T19:11:16.465Z,10.27
2023-01-11T19:13:45.076Z,14.18
2023-01-11T19:16:13.340Z,22.35
2023-01-11T19:18:40.272Z,17.67
2023-01-11T19:21:09.192Z,15.05
2023-01-11T19:23:36.006Z,12.68
2023-01-11T19:26:03.171Z,8.32
2023-01-11T19:28:30.408Z,12.38
2023-01-11T19:30:57.668Z,8.13
2023-01-11T19:33:25.170Z,16.77
2023-01-11T19:35:52.075Z,13.93
2023-01-11T19:38:20.256Z,13.48
2023-01-11T19:40:50.352Z,9.00
2023-01-11T19:43:17.618Z,14.18
2023-01-11T19:45:44.547Z,17.48
2023-01-11T19:48:12.328Z,14.52
2023-01-11T19:50:39.194Z,12.73
2023-01-11T19:53:06.028Z,14.77
2023-01-11T19:55:32.877Z,15.80
2023-01-11T19:57:59.783Z,12.25
2023-01-11T20:00:26.644Z,7.60
2023-01-11T20:02:53.623Z,10.00
2023-01-11T20:05:20.567Z,16.75
2023-01-11T20:07:47.517Z,10.77
2023-01-11T20:10:14.414Z,14.07
2023-01-11T20:12:41.279Z,13.25
2023-01-11T20:15:08.792Z,11.27
2023-01-11T20:17:37.862Z,16.13
2023-01-11T20:20:07.028Z,18.45
2023-01-11T20:22:34.134Z,13.30
2023-01-11T20:25:01.024Z,8.10
2023-01-11T20:27:29.305Z,18.90
2023-01-11T20:29:56.121Z,17.85
2023-01-11T20:32:40.201Z,10.35
2023-01-11T20:35:09.522Z,16.63
2023-01-11T20:37:36.786Z,13.65
2023-01-11T20:40:04.155Z,24.13
2023-01-11T20:42:31.503Z,12.30
2023-01-11T20:44:58.592Z,17.42
2023-01-11T20:47:25.401Z,12.77
2023-01-11T20:49:52.239Z,13.05
2023-01-11T20:52:19.124Z,14.43
2023-01-11T20:54:46.019Z,13.55
2023-01-11T20:57:12.968Z,14.52
2023-01-11T20:59:39.876Z,13.23
2023-01-11T21:02:07.712Z,13.30
2023-01-11T21:04:35.773Z,14.98
2023-01-11T21:07:02.769Z,14.27
2023-01-11T21:09:29.712Z,19.08
2023-01-11T21:11:56.797Z,10.75
2023-01-11T21:14:23.779Z,17.63
2023-01-11T21:16:50.798Z,16.67
2023-01-11T21:19:17.855Z,8.90
2023-01-11T21:21:44.837Z,11.95
2023-01-11T21:24:14.907Z,18.77
2023-01-11T21:26:43.636Z,13.43
2023-01-11T21:29:11.731Z,16.95
2023-01-11T21:31:40.291Z,13.32
2023-01-11T21:34:08.200Z,10.05
2023-01-11T21:36:35.225Z,8.80
2023-01-11T21:39:03.379Z,16.50
2023-01-11T21:41:51.719Z,14.32
2023-01-11T21:44:20.742Z,10.80
2023-01-11T21:46:56.896Z,10.40
2023-01-11T21:49:25.046Z,10.20
2023-01-11T21:51:52.882Z,7.05
2023-01-11T21:54:20.315Z,9.73
2023-01-11T21:56:48.774Z,11.32
2023-01-11T21:59:16.718Z,7.70
2023-01-11T22:01:45.974Z,11.73
2023-01-11T22:04:16.321Z,12.10
2023-01-11T22:06:50.884Z,10.38
2023-01-11T22:09:18.996Z,10.50
2023-01-11T22:11:46.520Z,7.07
2023-01-11T22:14:13.599Z,7.68
2023-01-11T22:16:40.886Z,7.55
2023-01-11T22:19:08.668Z,7.13
2023-01-11T22:21:37.130Z,10.70
2023-01-11T22:24:05.901Z,6.65
2023-01-11T22:26:36.465Z,4.55
2023-01-11T22:29:12.993Z,5.63
2023-01-11T22:31:51.516Z,5.07
2023-01-11T22:36:46.522Z,5.15
2023-01-11T22:39:16.147Z,3.05
2023-01-11T22:41:46.045Z,5.22
2023-01-11T22:44:13.569Z,5.88
2023-01-11T22:46:40.925Z,4.85
2023-01-11T22:49:08.816Z,3.65
2023-01-11T22:51:36.571Z,1.77
2023-01-11T22:54:04.533Z,3.28
2023-01-11T22:56:32.782Z,3.53
2023-01-11T22:59:00.363Z,4.03
2023-01-11T23:01:29.925Z,1.05
2023-01-11T23:03:58.057Z,2.08
2023-01-11T23:06:28.953Z,3.45
2023-01-11T23:08:56.849Z,2.03
2023-01-11T23:11:50.291Z,4.88
2023-01-11T23:14:19.429Z,3.35
2023-01-11T23:16:49.839Z,3.90
2023-01-11T23:19:20.360Z,4.68
2023-01-11T23:21:48.075Z,3.13
2023-01-11T23:24:17.144Z,4.00
2023-01-11T23:26:45.287Z,6.57
2023-01-11T23:29:12.292Z,7.30
2023-01-11T23:31:39.349Z,7.18
2023-01-11T23:34:09.603Z,7.00
2023-01-11T23:36:43.121Z,9.52
2023-01-11T23:39:14.691Z,12.38
2023-01-11T23:42:00.267Z,11.80
2023-01-11T23:44:27.532Z,7.30
2023-01-11T23:47:12.781Z,6.60
2023-01-11T23:49:39.822Z,6.00
2023-01-11T23:52:07.033Z,7.57
2023-01-11T23:54:34.619Z,9.77
2023-01-11T23:57:03.271Z,10.75
2023-01-11T23:59:30.690Z,8.55
